Time;durP1;ratioP1;P1;durP2;ratioP2;P2;SDS_P1;SDS_P2;PMS_P1;PMS_P2;Temp;Humidity;BMP_temperature;BMP_pressure;BME280_temperature;BME280_humidity;BME280_pressure;Samples;Min_cycle;Max_cycle;Signal;HPM_P1;HPM_P2
2022/07/12 00:01:38;;;;;;;9.68;6.88;;;16.30;99.90;;;;;;4974813;28;20495;-58
2022/07/12 00:04:04;;;;;;;9.80;8.13;;;16.20;99.90;;;;;;4972996;28;20723;-58
2022/07/12 00:06:30;;;;;;;11.07;8.10;;;16.20;99.90;;;;;;4969679;28;20046;-58
2022/07/12 00:08:55;;;;;;;9.80;8.80;;;16.20;99.90;;;;;;4988604;28;20040;-58
2022/07/12 00:11:21;;;;;;;11.15;9.35;;;16.10;99.90;;;;;;4967437;28;20039;-58
2022/07/12 00:13:47;;;;;;;15.55;9.45;;;16.10;99.90;;;;;;4967395;28;20046;-57
2022/07/12 00:16:12;;;;;;;9.27;7.95;;;16.10;99.90;;;;;;4967724;28;20511;-58
2022/07/12 00:18:38;;;;;;;10.00;8.32;;;16.10;99.90;;;;;;4979119;28;20120;-58
2022/07/12 00:21:04;;;;;;;10.43;8.73;;;16.10;99.90;;;;;;4973888;28;20105;-57
2022/07/12 00:23:30;;;;;;;11.38;8.25;;;16.10;99.90;;;;;;4972695;28;20076;-58
2022/07/12 00:25:56;;;;;;;10.27;8.82;;;16.10;99.90;;;;;;4982949;28;20042;-58
2022/07/12 00:28:21;;;;;;;12.27;9.65;;;16.10;99.90;;;;;;4967845;28;20046;-55
2022/07/12 00:30:47;;;;;;;11.48;9.48;;;16.10;99.90;;;;;;4967356;28;20043;-58
2022/07/12 00:33:13;;;;;;;12.98;10.63;;;16.10;99.90;;;;;;4978663;28;20126;-58
2022/07/12 00:35:38;;;;;;;19.90;14.00;;;16.10;99.90;;;;;;4966894;28;20049;-58
2022/07/12 00:38:04;;;;;;;10.52;8.40;;;16.10;99.90;;;;;;4972193;28;20039;-57
2022/07/12 00:40:30;;;;;;;14.93;10.80;;;16.10;99.90;;;;;;4968326;28;20047;-57
2022/07/12 00:42:55;;;;;;;12.90;10.23;;;16.10;99.90;;;;;;4976664;28;20047;-58
2022/07/12 00:45:21;;;;;;;15.40;10.77;;;16.10;99.90;;;;;;4970654;28;20125;-58
2022/07/12 00:47:50;;;;;;;11.38;9.77;;;16.10;99.90;;;;;;4965802;28;20046;-58
2022/07/12 00:50:23;;;;;;;10.98;9.82;;;16.20;99.90;;;;;;4971045;28;20118;-58
2022/07/12 00:52:50;;;;;;;12.70;9.87;;;16.20;99.90;;;;;;4966092;28;20106;-58
2022/07/12 00:55:18;;;;;;;9.70;8.52;;;16.10;99.90;;;;;;4982444;28;20928;-58
2022/07/12 00:57:44;;;;;;;15.48;11.02;;;16.10;99.90;;;;;;4987536;28;20093;-58
2022/07/12 01:00:12;;;;;;;15.43;10.75;;;16.10;99.90;;;;;;4975440;28;20035;-59
2022/07/12 01:02:38;;;;;;;13.30;10.32;;;16.10;99.90;;;;;;4971484;28;20054;-59
2022/07/12 01:05:07;;;;;;;14.02;11.15;;;16.20;99.90;;;;;;4976695;28;20085;-59
2022/07/12 01:07:34;;;;;;;13.85;9.70;;;16.20;99.90;;;;;;4967710;28;20035;-59
2022/07/12 01:10:00;;;;;;;12.82;9.82;;;16.20;99.90;;;;;;4970173;28;20096;-59
2022/07/12 01:12:26;;;;;;;14.20;10.88;;;16.20;99.90;;;;;;4971931;28;20043;-59
2022/07/12 01:14:53;;;;;;;16.10;11.23;;;16.20;99.90;;;;;;4988980;28;20104;-59
2022/07/12 01:17:24;;;;;;;15.82;12.85;;;16.20;99.90;;;;;;4973221;28;20046;-59
2022/07/12 01:19:51;;;;;;;20.67;16.42;;;16.20;99.90;;;;;;4970076;28;20038;-59
2022/07/12 01:22:18;;;;;;;34.60;17.70;;;16.20;99.90;;;;;;4975095;28;20054;-58
2022/07/12 01:24:45;;;;;;;51.67;28.48;;;16.10;99.90;;;;;;4978567;28;20153;-58
2022/07/12 01:27:12;;;;;;;39.28;23.67;;;16.10;99.90;;;;;;4984374;28;20516;-58
2022/07/12 01:29:38;;;;;;;45.92;25.08;;;16.10;99.90;;;;;;4977308;28;20042;-59
2022/07/12 01:32:24;;;;;;;39.15;23.67;;;16.10;99.90;;;;;;5009078;28;20046;-59
2022/07/12 01:34:56;;;;;;;31.75;19.83;;;16.10;99.90;;;;;;4973723;28;20039;-58
2022/07/12 01:37:23;;;;;;;57.85;13.73;;;16.10;99.90;;;;;;4981070;28;20400;-57
2022/07/12 01:39:54;;;;;;;18.70;11.98;;;16.00;99.90;;;;;;4977039;28;20046;-58
2022/07/12 01:42:24;;;;;;;15.45;10.95;;;16.00;99.90;;;;;;4967033;28;20047;-59
2022/07/12 01:44:51;;;;;;;17.38;11.43;;;16.00;99.90;;;;;;4965921;28;20412;-59
2022/07/12 01:47:21;;;;;;;13.10;9.95;;;16.00;99.90;;;;;;4969553;28;20143;-59
2022/07/12 01:49:47;;;;;;;21.77;10.45;;;16.00;99.90;;;;;;4977506;28;20054;-58
2022/07/12 01:52:14;;;;;;;15.45;11.20;;;16.00;99.90;;;;;;4972245;28;20038;-59
2022/07/12 01:54:41;;;;;;;14.07;11.23;;;16.00;99.90;;;;;;4969436;28;20035;-59
2022/07/12 01:57:07;;;;;;;15.85;12.18;;;16.00;99.90;;;;;;4967503;28;20078;-59
2022/07/12 01:59:34;;;;;;;16.20;11.50;;;16.00;99.90;;;;;;4970613;28;20106;-59
2022/07/12 02:02:00;;;;;;;63.90;14.90;;;16.00;99.90;;;;;;4999539;28;20047;-58
2022/07/12 02:04:27;;;;;;;12.05;10.20;;;16.00;99.90;;;;;;4970062;28;20081;-58
2022/07/12 02:06:53;;;;;;;17.77;11.63;;;16.00;99.90;;;;;;4971048;28;20038;-59
2022/07/12 02:09:19;;;;;;;16.60;9.80;;;16.00;99.90;;;;;;4989998;28;20128;-59
2022/07/12 02:11:46;;;;;;;22.60;10.32;;;15.90;99.90;;;;;;4988066;28;20110;-59
2022/07/12 02:14:12;;;;;;;18.90;9.82;;;15.90;99.90;;;;;;5031678;28;20051;-58
2022/07/12 02:16:39;;;;;;;10.43;7.95;;;15.90;99.90;;;;;;4970504;28;20100;-59
2022/07/12 02:19:04;;;;;;;11.50;9.65;;;15.80;99.90;;;;;;4968035;28;20112;-59
2022/07/12 02:21:30;;;;;;;29.33;10.02;;;15.90;99.90;;;;;;4971942;28;20051;-59
2022/07/12 02:23:56;;;;;;;12.10;9.07;;;15.80;99.90;;;;;;4975193;28;20292;-58
2022/07/12 02:26:22;;;;;;;12.70;8.98;;;15.80;99.90;;;;;;4983523;28;20493;-57
2022/07/12 02:28:47;;;;;;;18.50;9.85;;;15.80;99.90;;;;;;4968846;28;20108;-59
2022/07/12 02:31:13;;;;;;;9.95;7.95;;;15.70;99.90;;;;;;4969296;28;20085;-59
2022/07/12 02:33:39;;;;;;;11.00;7.85;;;15.70;99.90;;;;;;4983626;28;20078;-58
2022/07/12 02:36:05;;;;;;;13.55;7.35;;;15.70;99.90;;;;;;5002161;28;20445;-59
2022/07/12 02:38:31;;;;;;;14.88;8.20;;;15.70;99.90;;;;;;4970511;28;20046;-59
2022/07/12 02:40:56;;;;;;;15.70;8.27;;;15.70;99.90;;;;;;4976991;28;20031;-58
2022/07/12 02:43:28;;;;;;;13.55;7.75;;;15.70;99.90;;;;;;4968862;28;20057;-59
2022/07/12 02:45:58;;;;;;;24.58;8.77;;;15.70;99.90;;;;;;4998345;28;20096;-57
2022/07/12 02:48:24;;;;;;;11.73;7.05;;;15.70;99.90;;;;;;4996930;28;20047;-59
2022/07/12 02:50:50;;;;;;;22.60;8.40;;;15.70;99.90;;;;;;4985690;28;20125;-58
2022/07/12 02:53:15;;;;;;;15.55;7.32;;;15.70;99.90;;;;;;4972743;28;20039;-59
2022/07/12 02:55:41;;;;;;;11.55;7.38;;;15.70;99.90;;;;;;4986104;28;20038;-58
2022/07/12 02:58:07;;;;;;;12.63;6.03;;;15.70;99.90;;;;;;4972209;28;20043;-59
2022/07/12 03:00:34;;;;;;;19.20;7.13;;;15.70;99.90;;;;;;4974928;28;20034;-59
2022/07/12 03:03:00;;;;;;;12.40;7.65;;;15.70;99.90;;;;;;4985612;28;20039;-59
2022/07/12 03:05:26;;;;;;;9.88;6.72;;;15.70;99.90;;;;;;4950137;28;20039;-58
2022/07/12 03:07:52;;;;;;;6.75;5.38;;;15.70;99.90;;;;;;4968470;28;20129;-58
2022/07/12 03:10:18;;;;;;;13.50;6.20;;;15.70;99.90;;;;;;5009217;28;20035;-58
2022/07/12 03:12:43;;;;;;;9.30;5.60;;;15.70;99.90;;;;;;4985912;28;20036;-59
2022/07/12 03:15:09;;;;;;;7.55;5.57;;;15.70;99.90;;;;;;4971809;28;20418;-59
2022/07/12 03:17:35;;;;;;;7.45;5.93;;;15.60;99.90;;;;;;4969053;28;20046;-59
2022/07/12 03:20:04;;;;;;;10.25;6.22;;;15.60;99.90;;;;;;4965545;28;20379;-59
2022/07/12 03:22:30;;;;;;;17.75;6.30;;;15.60;99.90;;;;;;4970745;28;20737;-58
2022/07/12 03:24:55;;;;;;;12.38;5.35;;;15.60;99.90;;;;;;4969213;28;20129;-59
2022/07/12 03:27:21;;;;;;;9.85;5.45;;;15.50;99.90;;;;;;4969986;28;20123;-59
2022/07/12 03:29:47;;;;;;;11.88;5.22;;;15.50;99.90;;;;;;4969040;28;20531;-58
2022/07/12 03:32:12;;;;;;;10.35;5.13;;;15.50;99.90;;;;;;5001248;28;20035;-58
2022/07/12 03:34:38;;;;;;;23.30;6.18;;;15.50;99.90;;;;;;4986242;28;20043;-58
2022/07/12 03:37:04;;;;;;;9.23;5.13;;;15.50;99.90;;;;;;4973822;28;20035;-58
2022/07/12 03:39:30;;;;;;;8.52;3.55;;;15.50;99.90;;;;;;4966315;28;20054;-59
2022/07/12 03:41:56;;;;;;;7.88;4.70;;;15.50;99.90;;;;;;4973245;28;20477;-59
2022/07/12 03:44:22;;;;;;;157.32;11.75;;;15.50;99.90;;;;;;4986344;28;20051;-59
2022/07/12 03:46:47;;;;;;;11.65;5.32;;;15.50;99.90;;;;;;4967488;28;20083;-58
2022/07/12 03:49:14;;;;;;;7.40;4.05;;;15.50;99.90;;;;;;4974608;28;20087;-58
2022/07/12 03:51:40;;;;;;;41.40;7.07;;;15.40;99.90;;;;;;4996957;28;20044;-59
2022/07/12 03:54:08;;;;;;;10.13;6.80;;;15.40;99.90;;;;;;5028201;28;20047;-59
2022/07/12 03:59:20;;;;;;;47.35;7.63;;;15.40;99.90;;;;;;4978666;28;20043;-58
2022/07/12 04:01:46;;;;;;;14.70;4.70;;;15.40;99.90;;;;;;4991638;28;20043;-59
2022/07/12 04:04:11;;;;;;;10.98;5.78;;;15.40;99.90;;;;;;5010222;28;20046;-59
2022/07/12 04:06:38;;;;;;;5.53;4.55;;;15.50;99.90;;;;;;4979480;28;20080;-59
2022/07/12 04:09:05;;;;;;;17.83;5.43;;;15.50;99.90;;;;;;4978613;28;20300;-59
2022/07/12 04:11:32;;;;;;;10.73;5.65;;;15.40;99.90;;;;;;4968255;28;20038;-59
2022/07/12 04:13:58;;;;;;;7.03;4.80;;;15.40;99.90;;;;;;4967773;28;20050;-58
2022/07/12 04:16:23;;;;;;;7.88;4.93;;;15.40;99.90;;;;;;4971836;28;20039;-59
2022/07/12 04:18:49;;;;;;;15.55;6.65;;;15.40;99.90;;;;;;4971121;28;20096;-59
2022/07/12 04:21:15;;;;;;;6.57;5.47;;;15.40;99.90;;;;;;5007129;28;20162;-59
2022/07/12 04:23:40;;;;;;;10.90;5.72;;;15.40;99.90;;;;;;4976771;28;20044;-59
2022/07/12 04:26:06;;;;;;;10.02;6.45;;;15.50;99.90;;;;;;4968882;28;20035;-58
2022/07/12 04:28:32;;;;;;;9.50;5.38;;;15.50;99.90;;;;;;4971131;28;20319;-59
2022/07/12 04:30:57;;;;;;;7.65;4.32;;;15.50;99.90;;;;;;4968678;28;20057;-59
2022/07/12 04:33:23;;;;;;;10.63;5.53;;;15.50;99.90;;;;;;4976944;28;20050;-58
2022/07/12 04:35:49;;;;;;;26.35;5.72;;;15.50;99.90;;;;;;5023961;28;20049;-58
2022/07/12 04:38:15;;;;;;;5.68;4.68;;;15.50;99.90;;;;;;4970828;28;20129;-59
2022/07/12 04:40:40;;;;;;;7.63;4.65;;;15.50;99.90;;;;;;4976050;28;20394;-59
2022/07/12 04:43:06;;;;;;;8.15;5.70;;;15.60;99.90;;;;;;4998102;28;20096;-59
2022/07/12 04:45:32;;;;;;;7.22;5.05;;;15.60;99.90;;;;;;4970594;28;20046;-59
2022/07/12 04:47:58;;;;;;;7.88;5.05;;;15.60;99.90;;;;;;4952618;28;20506;-58
2022/07/12 04:50:23;;;;;;;6.53;5.50;;;15.70;99.90;;;;;;4953144;28;20551;-59
2022/07/12 04:52:49;;;;;;;7.82;5.90;;;15.70;99.90;;;;;;4970492;28;20034;-57
2022/07/12 04:55:15;;;;;;;7.13;4.78;;;15.80;99.90;;;;;;5003456;28;20053;-59
2022/07/12 04:57:40;;;;;;;4.55;4.07;;;15.90;99.90;;;;;;4979915;28;20043;-58
2022/07/12 05:00:07;;;;;;;5.38;3.85;;;15.90;99.90;;;;;;4987083;28;20043;-59
2022/07/12 05:02:33;;;;;;;6.80;5.22;;;16.00;99.90;;;;;;5009427;28;20074;-59
2022/07/12 05:04:59;;;;;;;5.72;4.32;;;16.00;99.90;;;;;;4969071;28;20081;-58
2022/07/12 05:07:25;;;;;;;5.55;4.38;;;16.00;99.90;;;;;;4972458;28;20094;-59
2022/07/12 05:09:51;;;;;;;4.82;3.88;;;16.00;99.90;;;;;;4976507;28;20499;-58
2022/07/12 05:12:18;;;;;;;5.15;4.07;;;15.90;99.90;;;;;;4998194;28;20043;-59
2022/07/12 05:14:43;;;;;;;5.43;3.88;;;16.00;99.90;;;;;;4974357;28;20035;-59
2022/07/12 05:17:10;;;;;;;5.28;3.58;;;16.00;99.90;;;;;;4971590;28;20058;-59
2022/07/12 05:19:37;;;;;;;5.38;4.00;;;16.00;99.90;;;;;;4966795;28;20095;-59
2022/07/12 05:22:03;;;;;;;6.13;4.32;;;16.00;99.90;;;;;;4968759;28;20524;-59
2022/07/12 05:24:29;;;;;;;4.70;3.55;;;16.00;99.90;;;;;;4972588;28;20077;-59
2022/07/12 05:26:55;;;;;;;6.55;3.90;;;16.00;99.90;;;;;;4969214;28;20034;-58
2022/07/12 05:29:20;;;;;;;4.75;3.85;;;16.00;99.90;;;;;;4983897;28;20076;-58
2022/07/12 05:31:46;;;;;;;4.90;3.42;;;16.10;99.90;;;;;;4968790;28;20135;-59
2022/07/12 05:34:12;;;;;;;5.57;4.70;;;16.10;99.90;;;;;;4967717;28;20047;-57
2022/07/12 05:36:38;;;;;;;5.88;3.78;;;16.10;99.90;;;;;;4970186;28;20085;-59
2022/07/12 05:39:04;;;;;;;5.55;3.40;;;16.20;99.90;;;;;;5001529;23;20033;-56
2022/07/12 05:41:30;;;;;;;4.18;3.47;;;16.20;99.90;;;;;;5026911;28;20052;-56
2022/07/12 05:43:55;;;;;;;5.85;3.85;;;16.20;99.90;;;;;;5008591;28;20045;-56
2022/07/12 05:46:21;;;;;;;4.60;3.70;;;16.20;99.90;;;;;;5027619;28;20048;-54
2022/07/12 05:48:48;;;;;;;5.18;3.78;;;16.30;99.90;;;;;;5025910;28;20135;-57
2022/07/12 05:53:58;;;;;;;4.63;4.07;;;16.30;99.90;;;;;;5034073;28;20053;-57
2022/07/12 05:56:24;;;;;;;5.55;4.25;;;16.40;99.90;;;;;;5019761;28;20095;-57
2022/07/12 05:58:50;;;;;;;5.03;3.88;;;16.40;99.90;;;;;;5024487;28;20100;-55
2022/07/12 06:01:16;;;;;;;5.15;3.53;;;16.50;99.90;;;;;;5018365;28;20054;-56
2022/07/12 06:03:43;;;;;;;4.18;3.40;;;16.60;99.90;;;;;;5017949;28;20045;-58
2022/07/12 06:06:09;;;;;;;5.53;4.25;;;16.70;99.90;;;;;;5031993;28;20041;-57
2022/07/12 06:08:34;;;;;;;5.97;4.10;;;16.70;99.90;;;;;;5022546;28;20037;-58
2022/07/12 06:11:00;;;;;;;6.07;3.58;;;16.80;99.90;;;;;;5030729;28;20528;-54
2022/07/12 06:13:26;;;;;;;4.70;3.28;;;16.80;99.90;;;;;;5053249;28;20041;-57
2022/07/12 06:15:52;;;;;;;4.13;3.30;;;16.90;99.90;;;;;;5026054;28;20041;-57
2022/07/12 06:18:17;;;;;;;3.70;3.28;;;17.00;99.90;;;;;;5028422;28;20064;-56
2022/07/12 06:20:43;;;;;;;4.18;3.08;;;17.10;99.90;;;;;;5036715;28;20087;-56
2022/07/12 06:23:09;;;;;;;5.10;3.70;;;17.20;99.90;;;;;;5010441;28;20107;-57
2022/07/12 06:25:35;;;;;;;3.88;3.17;;;17.30;99.90;;;;;;5025371;28;20037;-55
2022/07/12 06:28:01;;;;;;;3.88;3.10;;;17.30;99.90;;;;;;5026328;28;20068;-57
2022/07/12 06:30:27;;;;;;;5.65;3.83;;;17.40;99.90;;;;;;5025483;28;20038;-56
2022/07/12 06:32:53;;;;;;;4.28;3.60;;;17.50;99.90;;;;;;5020543;28;20425;-56
2022/07/12 06:35:18;;;;;;;8.30;3.72;;;17.60;99.90;;;;;;5022873;28;20041;-57
2022/07/12 06:37:45;;;;;;;4.72;3.97;;;17.70;99.90;;;;;;5020580;28;20064;-57
2022/07/12 06:40:11;;;;;;;4.90;3.60;;;17.80;99.90;;;;;;5015609;28;20099;-57
2022/07/12 06:42:37;;;;;;;4.63;3.35;;;17.90;99.90;;;;;;5010868;28;20254;-55
2022/07/12 06:45:04;;;;;;;4.78;3.22;;;17.90;99.90;;;;;;5030877;28;20044;-56
2022/07/12 06:47:30;;;;;;;4.55;3.65;;;18.00;99.90;;;;;;5008973;28;20552;-54
2022/07/12 06:49:56;;;;;;;4.38;3.78;;;18.00;99.90;;;;;;5024162;28;20179;-58
2022/07/12 06:52:22;;;;;;;5.13;3.78;;;18.00;99.90;;;;;;5020567;28;20404;-56
2022/07/12 06:54:48;;;;;;;4.72;3.40;;;18.10;99.90;;;;;;5024843;28;20042;-55
2022/07/12 06:57:13;;;;;;;4.38;3.72;;;18.20;99.90;;;;;;5031117;28;20040;-58
2022/07/12 06:59:39;;;;;;;7.50;5.00;;;18.30;99.90;;;;;;5020211;28;20069;-57
2022/07/12 07:02:05;;;;;;;4.70;4.13;;;18.40;99.90;;;;;;5022660;28;20523;-57
2022/07/12 07:04:30;;;;;;;6.05;4.28;;;18.50;99.90;;;;;;5022426;28;20120;-56
2022/07/12 07:06:56;;;;;;;4.93;4.20;;;18.60;99.90;;;;;;5020768;28;20480;-55
2022/07/12 07:09:22;;;;;;;4.57;3.80;;;18.70;99.90;;;;;;5023287;28;20534;-57
2022/07/12 07:11:48;;;;;;;6.82;4.25;;;18.80;99.90;;;;;;5044678;28;20034;-54
2022/07/12 07:14:13;;;;;;;10.38;4.32;;;19.00;99.90;;;;;;5032011;28;20045;-57
2022/07/12 07:16:39;;;;;;;6.50;4.38;;;19.20;99.90;;;;;;5033178;28;20041;-57
2022/07/12 07:19:08;;;;;;;5.97;4.40;;;19.40;99.90;;;;;;5023688;28;20053;-56
2022/07/12 07:21:33;;;;;;;7.35;4.57;;;19.50;99.90;;;;;;5019530;28;20420;-58
2022/07/12 07:23:59;;;;;;;6.30;5.13;;;19.60;99.90;;;;;;5013579;28;20037;-57
2022/07/12 07:26:25;;;;;;;5.20;4.45;;;19.70;99.90;;;;;;5034900;28;20424;-56
2022/07/12 07:31:36;;;;;;;4.95;4.45;;;19.80;99.90;;;;;;5011646;28;20049;-58
2022/07/12 07:34:03;;;;;;;5.93;4.65;;;19.80;99.90;;;;;;5022685;28;20045;-57
2022/07/12 07:36:28;;;;;;;4.88;4.45;;;19.90;99.90;;;;;;5029744;28;20625;-57
2022/07/12 07:38:54;;;;;;;4.72;4.25;;;19.90;99.90;;;;;;5035316;28;20128;-57
2022/07/12 07:41:20;;;;;;;4.80;4.30;;;19.90;99.90;;;;;;5018371;28;20120;-55
2022/07/12 07:43:46;;;;;;;5.40;4.55;;;20.00;99.90;;;;;;5024578;28;20171;-57
2022/07/12 07:46:12;;;;;;;5.13;4.60;;;20.10;99.90;;;;;;5022533;28;20045;-56
2022/07/12 07:48:37;;;;;;;6.45;4.90;;;20.20;99.90;;;;;;5029621;28;20057;-58
2022/07/12 07:51:03;;;;;;;5.38;4.88;;;20.20;99.90;;;;;;5025122;28;20414;-57
2022/07/12 07:53:29;;;;;;;5.05;4.55;;;20.30;99.90;;;;;;5012782;28;20044;-58
2022/07/12 07:55:55;;;;;;;5.57;4.55;;;20.30;99.90;;;;;;5038555;28;20091;-56
2022/07/12 07:58:21;;;;;;;4.85;4.32;;;20.30;99.90;;;;;;5020086;28;20044;-57
2022/07/12 08:00:50;;;;;;;5.60;5.10;;;20.30;99.90;;;;;;5026421;28;20041;-58
2022/07/12 08:03:16;;;;;;;5.43;4.72;;;20.30;99.90;;;;;;5023495;28;20158;-57
2022/07/12 08:05:42;;;;;;;6.05;5.45;;;20.30;99.90;;;;;;5022702;28;20480;-58
2022/07/12 08:08:08;;;;;;;6.45;4.20;;;20.30;99.90;;;;;;5028436;28;20044;-58
2022/07/12 08:10:33;;;;;;;5.75;4.95;;;20.30;99.90;;;;;;5028552;28;20033;-57
2022/07/12 08:12:59;;;;;;;5.30;4.72;;;20.40;99.90;;;;;;5036519;28;20042;-57
2022/07/12 08:15:25;;;;;;;5.90;4.90;;;20.40;99.90;;;;;;5030724;28;20046;-58
2022/07/12 08:17:51;;;;;;;5.38;4.70;;;20.40;99.90;;;;;;5036185;28;20064;-57
2022/07/12 08:20:17;;;;;;;5.95;5.45;;;20.50;99.90;;;;;;5021619;28;20123;-57
2022/07/12 08:22:45;;;;;;;5.57;5.07;;;20.50;99.90;;;;;;5031204;28;20052;-56
2022/07/12 08:25:11;;;;;;;5.03;4.63;;;20.70;99.90;;;;;;5031556;28;20049;-58
2022/07/12 08:27:36;;;;;;;6.18;4.53;;;20.90;99.90;;;;;;5033037;28;20114;-57
2022/07/12 08:30:03;;;;;;;6.28;4.55;;;21.10;99.90;;;;;;5030734;28;20472;-57
2022/07/12 08:32:29;;;;;;;5.85;5.25;;;21.30;99.90;;;;;;5030258;28;20478;-57
2022/07/12 08:34:55;;;;;;;5.40;4.47;;;21.50;99.90;;;;;;5031732;28;20045;-57
2022/07/12 08:37:21;;;;;;;5.43;4.20;;;21.60;99.90;;;;;;5016874;28;20096;-58
2022/07/12 08:39:47;;;;;;;6.00;5.03;;;21.70;99.90;;;;;;5031684;28;20440;-58
2022/07/12 08:42:16;;;;;;;5.35;4.85;;;21.80;99.90;;;;;;5026350;28;20337;-57
2022/07/12 08:44:53;;;;;;;5.63;4.97;;;21.80;99.90;;;;;;5021862;28;20037;-55
2022/07/12 08:47:19;;;;;;;4.82;4.20;;;21.80;99.90;;;;;;5024752;28;20495;-56
2022/07/12 08:50:20;;;;;;;4.38;3.95;;;21.90;99.90;;;;;;5020535;28;20037;-57
2022/07/12 08:52:48;;;;;;;5.22;4.78;;;22.00;99.90;;;;;;5022522;28;20049;-57
2022/07/12 08:55:31;;;;;;;6.88;4.32;;;22.20;99.90;;;;;;5045280;28;20053;-58
2022/07/12 08:57:59;;;;;;;6.50;4.87;;;22.30;99.90;;;;;;5022332;28;20033;-58
2022/07/12 09:00:29;;;;;;;5.40;4.20;;;22.50;99.90;;;;;;5044563;28;20284;-56
2022/07/12 09:02:56;;;;;;;5.15;3.92;;;22.60;99.90;;;;;;5037580;28;20045;-56
2022/07/12 09:05:32;;;;;;;7.63;4.90;;;22.70;99.90;;;;;;5029518;28;20377;-57
2022/07/12 09:08:09;;;;;;;5.22;4.68;;;22.80;99.90;;;;;;5027401;28;20053;-58
2022/07/12 09:10:55;;;;;;;5.72;5.13;;;22.80;99.90;;;;;;5032477;28;20033;-58
2022/07/12 09:13:42;;;;;;;5.43;4.25;;;22.90;99.90;;;;;;5035541;28;20041;-56
2022/07/12 09:16:19;;;;;;;6.63;4.88;;;22.90;99.90;;;;;;5033708;28;20045;-61
2022/07/12 09:18:46;;;;;;;5.72;5.13;;;22.90;99.90;;;;;;5023859;28;20092;-57
2022/07/12 09:21:29;;;;;;;6.07;4.97;;;23.00;99.90;;;;;;5027559;28;20436;-58
2022/07/12 09:23:59;;;;;;;6.22;5.60;;;23.10;99.90;;;;;;5013465;28;20268;-58
2022/07/12 09:26:33;;;;;;;6.07;5.47;;;23.10;99.90;;;;;;5031147;28;20057;-56
2022/07/12 09:29:12;;;;;;;6.05;5.20;;;23.10;99.90;;;;;;5025449;28;20098;-58
2022/07/12 09:37:18;;;;;;;8.10;6.70;;;23.50;99.90;;;;;;5023864;28;20104;-57
2022/07/12 09:39:44;;;;;;;6.85;5.57;;;23.60;99.90;;;;;;5037347;28;20396;-58
2022/07/12 09:42:11;;;;;;;6.88;6.15;;;23.70;99.90;;;;;;5029512;28;20468;-57
2022/07/12 09:44:39;;;;;;;7.05;6.20;;;23.90;99.90;;;;;;5049503;28;20075;-58
2022/07/12 09:47:12;;;;;;;7.15;6.45;;;24.10;99.90;;;;;;5033425;28;20044;-54
2022/07/12 09:49:38;;;;;;;6.55;5.88;;;24.40;99.90;;;;;;5028116;28;20034;-55
2022/07/12 09:52:06;;;;;;;7.93;7.13;;;24.50;99.90;;;;;;5027637;28;20088;-56
2022/07/12 09:54:38;;;;;;;7.90;7.10;;;24.50;99.90;;;;;;5036784;28;20305;-57
2022/07/12 09:57:07;;;;;;;8.88;7.05;;;24.60;99.90;;;;;;5032193;28;20052;-58
2022/07/12 09:59:36;;;;;;;9.27;7.90;;;24.50;99.90;;;;;;5021692;28;20045;-58
2022/07/12 10:02:05;;;;;;;7.70;6.95;;;24.40;99.90;;;;;;5033339;28;20038;-55
2022/07/12 10:04:33;;;;;;;7.65;6.93;;;24.30;99.90;;;;;;5021423;28;20530;-56
2022/07/12 10:06:58;;;;;;;9.95;7.00;;;24.30;99.90;;;;;;5037955;28;20061;-57
2022/07/12 10:09:26;;;;;;;8.75;7.90;;;24.30;99.90;;;;;;5008956;28;20056;-55
2022/07/12 10:11:54;;;;;;;10.43;8.25;;;24.50;99.90;;;;;;5021550;28;20042;-57
2022/07/12 10:14:21;;;;;;;10.05;9.10;;;24.50;99.90;;;;;;5024251;28;20083;-57
2022/07/12 10:16:51;;;;;;;8.73;7.82;;;24.50;99.90;;;;;;5024642;28;20116;-56
2022/07/12 10:19:32;;;;;;;9.00;8.10;;;24.50;99.90;;;;;;5019901;28;20038;-56
2022/07/12 10:22:03;;;;;;;8.80;7.90;;;24.60;99.90;;;;;;5028935;28;20041;-58
2022/07/12 10:24:32;;;;;;;9.13;7.78;;;24.60;99.90;;;;;;5026926;28;20657;-58
2022/07/12 10:27:21;;;;;;;8.98;7.35;;;24.70;99.90;;;;;;5031196;28;20037;-58
2022/07/12 10:29:52;;;;;;;7.57;6.88;;;24.80;99.90;;;;;;5015036;28;20069;-57
2022/07/12 10:32:41;;;;;;;9.82;7.53;;;24.90;99.90;;;;;;5028897;28;20041;-58
2022/07/12 10:35:18;;;;;;;7.43;6.72;;;25.10;99.90;;;;;;5033477;28;20088;-58
2022/07/12 10:38:12;;;;;;;7.35;6.25;;;25.30;99.90;;;;;;5026699;28;20041;-59
2022/07/12 10:40:39;;;;;;;7.35;5.78;;;25.30;99.90;;;;;;5023580;28;21308;-59
2022/07/12 10:43:05;;;;;;;8.40;5.45;;;25.50;99.90;;;;;;5020943;28;20037;-57
2022/07/12 10:45:32;;;;;;;6.38;5.43;;;25.50;99.90;;;;;;5028712;28;20084;-58
2022/07/12 10:47:58;;;;;;;6.10;5.20;;;25.60;99.90;;;;;;5037590;28;20079;-58
2022/07/12 10:50:45;;;;;;;9.07;5.85;;;25.60;99.90;;;;;;5029172;28;20052;-58
2022/07/12 10:53:33;;;;;;;6.10;5.50;;;25.30;99.90;;;;;;5025386;28;20049;-58
2022/07/12 10:56:27;;;;;;;6.45;4.63;;;25.40;99.90;;;;;;5026063;28;20045;-58
2022/07/12 10:58:58;;;;;;;6.78;4.57;;;25.40;99.90;;;;;;5024554;28;20063;-56
2022/07/12 11:01:25;;;;;;;4.85;4.43;;;25.60;99.90;;;;;;5030429;28;20057;-58
2022/07/12 11:04:05;;;;;;;5.55;5.05;;;25.70;99.90;;;;;;5006037;28;20540;-57
2022/07/12 11:06:35;;;;;;;6.95;3.85;;;25.70;99.90;;;;;;5027891;28;20037;-56
2022/07/12 11:09:11;;;;;;;5.75;4.00;;;25.70;99.90;;;;;;5025418;28;20526;-58
2022/07/12 11:11:48;;;;;;;6.13;3.95;;;25.70;99.90;;;;;;5033206;28;20107;-58
2022/07/12 11:14:21;;;;;;;4.60;3.67;;;25.90;99.90;;;;;;5059201;28;20045;-58
2022/07/12 11:16:49;;;;;;;4.45;4.05;;;26.00;99.90;;;;;;5027025;28;20085;-56
2022/07/12 11:19:15;;;;;;;6.38;4.25;;;26.10;99.90;;;;;;5041377;28;20049;-58
2022/07/12 11:21:48;;;;;;;4.53;4.00;;;26.30;99.90;;;;;;5017066;28;20045;-59
2022/07/12 11:24:30;;;;;;;4.78;3.75;;;26.40;99.70;;;;;;5026175;28;20403;-58
2022/07/12 11:26:57;;;;;;;5.85;3.28;;;26.30;99.70;;;;;;5027783;28;20128;-58
2022/07/12 11:29:25;;;;;;;7.50;4.55;;;26.50;99.80;;;;;;5048472;28;20135;-57
2022/07/12 11:32:08;;;;;;;5.95;3.63;;;26.80;99.60;;;;;;5016784;28;20069;-57
2022/07/12 11:34:34;;;;;;;6.78;4.22;;;27.00;99.30;;;;;;5030176;28;20124;-56
2022/07/12 11:37:01;;;;;;;4.55;3.38;;;27.00;98.80;;;;;;5036395;28;20041;-56
2022/07/12 11:39:33;;;;;;;4.72;2.75;;;27.00;98.40;;;;;;5040789;23;20033;-58
2022/07/12 11:42:00;;;;;;;3.85;2.97;;;26.90;98.10;;;;;;5051062;28;20398;-59
2022/07/12 11:44:45;;;;;;;4.90;2.70;;;27.00;98.30;;;;;;5072226;28;20036;-59
2022/07/12 11:47:11;;;;;;;4.82;2.60;;;26.90;97.70;;;;;;5053086;28;20040;-58
2022/07/12 11:49:42;;;;;;;5.07;2.63;;;26.90;97.20;;;;;;5064447;28;20081;-59
2022/07/12 11:52:08;;;;;;;3.72;2.78;;;27.00;96.90;;;;;;5066528;28;20063;-61
2022/07/12 11:54:34;;;;;;;3.92;3.00;;;26.80;96.50;;;;;;5067934;28;20087;-58
2022/07/12 11:57:08;;;;;;;3.00;2.33;;;26.80;96.10;;;;;;5049469;28;20044;-59
2022/07/12 11:59:33;;;;;;;6.13;2.53;;;27.00;96.10;;;;;;5055256;28;20079;-59
2022/07/12 12:02:13;;;;;;;3.30;2.50;;;27.00;95.80;;;;;;5059456;28;20550;-59
2022/07/12 12:04:54;;;;;;;2.70;1.90;;;27.20;95.60;;;;;;5068959;28;20064;-58
2022/07/12 12:07:22;;;;;;;2.35;1.88;;;27.50;95.40;;;;;;5063664;28;20040;-58
2022/07/12 12:10:05;;;;;;;2.20;1.40;;;27.60;94.80;;;;;;5054760;28;20079;-58
2022/07/12 12:12:46;;;;;;;1.60;1.42;;;27.70;94.10;;;;;;5063753;28;20033;-57
2022/07/12 12:15:15;;;;;;;1.48;1.35;;;27.70;93.60;;;;;;5071414;28;20135;-58
2022/07/12 12:17:56;;;;;;;2.85;1.80;;;27.80;93.90;;;;;;5057378;28;20037;-57
2022/07/12 12:20:26;;;;;;;2.17;1.50;;;27.90;93.80;;;;;;5070471;28;20131;-58
2022/07/12 12:22:54;;;;;;;2.55;1.50;;;27.80;93.20;;;;;;5064220;28;20513;-57
2022/07/12 12:25:21;;;;;;;1.85;1.50;;;27.90;93.70;;;;;;5057217;28;20135;-58
2022/07/12 12:27:57;;;;;;;2.20;1.35;;;28.10;92.50;;;;;;5059729;28;20087;-58
2022/07/12 12:30:24;;;;;;;2.25;1.55;;;28.30;92.60;;;;;;5057952;28;20036;-61
2022/07/12 12:32:53;;;;;;;1.67;1.50;;;28.30;91.10;;;;;;5063136;28;20047;-58
2022/07/12 12:35:21;;;;;;;3.10;1.80;;;28.30;88.70;;;;;;5054085;28;20237;-59
2022/07/12 12:37:50;;;;;;;2.13;1.40;;;28.30;89.80;;;;;;5074946;28;20110;-60
2022/07/12 12:40:24;;;;;;;3.25;1.40;;;28.30;86.80;;;;;;5063834;28;20048;-60
2022/07/12 12:42:50;;;;;;;2.42;1.50;;;28.20;85.50;;;;;;5065704;28;20455;-60
2022/07/12 12:45:22;;;;;;;1.40;1.00;;;28.10;86.80;;;;;;5062298;28;20045;-60
2022/07/12 12:47:56;;;;;;;1.67;1.25;;;28.00;85.50;;;;;;5061966;28;20376;-60
2022/07/12 12:50:38;;;;;;;1.17;1.08;;;27.90;83.00;;;;;;5060183;28;20438;-58
2022/07/12 12:53:18;;;;;;;1.90;1.50;;;27.80;82.90;;;;;;5070484;28;20032;-59
2022/07/12 12:55:46;;;;;;;3.53;1.05;;;27.60;85.20;;;;;;5073815;28;20396;-60
2022/07/12 12:58:13;;;;;;;1.63;1.30;;;27.50;86.20;;;;;;5064034;28;20496;-60
2022/07/12 13:00:43;;;;;;;3.55;1.05;;;27.40;82.20;;;;;;5063831;28;20106;-60
2022/07/12 13:03:14;;;;;;;1.10;1.00;;;27.40;84.10;;;;;;5080081;28;20555;-60